createdAt,value
2018-06-30T19:09:34.689Z,1.70
2018-06-30T19:12:33.333Z,1.80
2018-06-30T19:18:23.642Z,1.53
2018-06-30T19:21:07.520Z,1.50
2018-06-30T19:23:52.689Z,1.80
2018-06-30T19:26:34.709Z,1.83
2018-06-30T19:29:12.866Z,1.70
2018-06-30T19:32:48.241Z,1.73
2018-06-30T19:40:55.336Z,1.83
2018-06-30T19:49:32.018Z,1.60
2018-06-30T19:52:14.533Z,1.43
2018-06-30T19:54:50.997Z,1.87
2018-06-30T19:57:26.997Z,1.67
2018-06-30T20:25:33.797Z,1.70
2018-06-30T20:28:09.763Z,2.17
2018-06-30T20:30:47.544Z,1.60
2018-06-30T20:33:21.454Z,1.90
2018-06-30T20:35:59.414Z,2.17
2018-06-30T20:38:43.673Z,1.60
2018-06-30T20:41:18.140Z,2.07
2018-06-30T20:44:23.690Z,1.90
2018-06-30T20:47:34.165Z,2.27
2018-06-30T20:50:11.546Z,1.90
2018-06-30T20:52:47.505Z,2.13
2018-06-30T20:55:24.717Z,1.90
2018-06-30T20:57:59.477Z,2.10
2018-06-30T21:00:39.851Z,2.17
2018-06-30T21:03:16.943Z,2.20
2018-06-30T21:05:53.844Z,1.93
2018-06-30T21:08:39.207Z,2.10
2018-06-30T21:18:25.162Z,2.37
2018-06-30T21:21:04.717Z,2.03
2018-06-30T21:26:43.552Z,2.60
2018-06-30T21:29:18.869Z,2.20
2018-06-30T21:31:58.095Z,2.37
2018-06-30T21:34:35.887Z,1.90
2018-06-30T21:37:12.299Z,2.00
2018-06-30T21:39:46.823Z,2.00
2018-06-30T21:42:20.611Z,1.83
2018-06-30T21:44:55.697Z,2.10
2018-06-30T21:47:35.460Z,2.00
2018-06-30T21:50:20.980Z,2.10
2018-06-30T21:52:56.779Z,2.20
2018-06-30T21:55:34.313Z,3.00
2018-06-30T21:58:08.979Z,4.60
2018-06-30T22:01:51.115Z,4.33
2018-06-30T22:04:26.190Z,3.50
2018-06-30T22:06:59.686Z,2.93
2018-06-30T22:09:30.336Z,3.10
2018-06-30T22:12:03.617Z,3.00
2018-06-30T22:14:39.183Z,3.40
2018-06-30T22:17:11.748Z,4.53
2018-06-30T22:19:42.383Z,5.27
2018-06-30T22:22:15.928Z,4.80
2018-06-30T22:24:49.140Z,4.40
2018-06-30T22:27:24.521Z,3.93
2018-06-30T22:29:57.292Z,3.30
2018-06-30T22:32:28.009Z,3.03
2018-06-30T22:35:00.093Z,3.10
2018-06-30T22:37:37.094Z,3.23
2018-06-30T22:40:16.443Z,3.67
2018-06-30T22:42:48.212Z,3.37
